sensor_id;sensor_type;location;lat;lon;timestamp;P1;durP1;ratioP1;P2;durP2;ratioP2
42030;SDS011;27709;52.036;5.906;2024-01-10T00:01:17;5.78;;;2.88;;
42030;SDS011;27709;52.036;5.906;2024-01-10T00:03:43;5.20;;;2.55;;
42030;SDS011;27709;52.036;5.906;2024-01-10T00:06:12;5.75;;;2.78;;
42030;SDS011;27709;52.036;5.906;2024-01-10T00:08:38;5.53;;;2.25;;
42030;SDS011;27709;52.036;5.906;2024-01-10T00:11:04;5.18;;;2.67;;
42030;SDS011;27709;52.036;5.906;2024-01-10T00:13:31;7.38;;;3.03;;
42030;SDS011;27709;52.036;5.906;2024-01-10T00:15:57;5.50;;;2.90;;
42030;SDS011;27709;52.036;5.906;2024-01-10T00:18:24;5.05;;;2.50;;
42030;SDS011;27709;52.036;5.906;2024-01-10T00:20:49;7.13;;;2.85;;
42030;SDS011;27709;52.036;5.906;2024-01-10T00:23:18;5.22;;;2.45;;
42030;SDS011;27709;52.036;5.906;2024-01-10T00:25:44;8.10;;;2.67;;
42030;SDS011;27709;52.036;5.906;2024-01-10T00:28:10;7.10;;;2.80;;
42030;SDS011;27709;52.036;5.906;2024-01-10T00:30:36;6.10;;;2.80;;
42030;SDS011;27709;52.036;5.906;2024-01-10T00:33:02;7.82;;;2.40;;
42030;SDS011;27709;52.036;5.906;2024-01-10T00:35:28;7.75;;;2.75;;
42030;SDS011;27709;52.036;5.906;2024-01-10T00:37:53;5.30;;;2.70;;
42030;SDS011;27709;52.036;5.906;2024-01-10T00:40:19;6.65;;;2.55;;
42030;SDS011;27709;52.036;5.906;2024-01-10T00:42:44;4.93;;;2.55;;
42030;SDS011;27709;52.036;5.906;2024-01-10T00:45:10;5.68;;;2.92;;
42030;SDS011;27709;52.036;5.906;2024-01-10T00:47:36;7.38;;;2.90;;
42030;SDS011;27709;52.036;5.906;2024-01-10T00:50:01;6.50;;;3.05;;
42030;SDS011;27709;52.036;5.906;2024-01-10T00:52:27;5.97;;;3.15;;
42030;SDS011;27709;52.036;5.906;2024-01-10T00:54:52;7.00;;;3.17;;
42030;SDS011;27709;52.036;5.906;2024-01-10T00:57:18;6.90;;;2.75;;
42030;SDS011;27709;52.036;5.906;2024-01-10T00:59:43;8.48;;;2.78;;
42030;SDS011;27709;52.036;5.906;2024-01-10T01:02:09;7.28;;;2.65;;
42030;SDS011;27709;52.036;5.906;2024-01-10T01:04:34;9.20;;;2.85;;
42030;SDS011;27709;52.036;5.906;2024-01-10T01:07:00;7.35;;;2.58;;
42030;SDS011;27709;52.036;5.906;2024-01-10T01:09:25;6.90;;;3.13;;
42030;SDS011;27709;52.036;5.906;2024-01-10T01:11:51;6.22;;;2.58;;
42030;SDS011;27709;52.036;5.906;2024-01-10T01:14:16;7.15;;;3.22;;
42030;SDS011;27709;52.036;5.906;2024-01-10T01:16:42;5.50;;;2.80;;
42030;SDS011;27709;52.036;5.906;2024-01-10T01:19:08;5.95;;;2.85;;
42030;SDS011;27709;52.036;5.906;2024-01-10T01:21:33;7.03;;;2.85;;
42030;SDS011;27709;52.036;5.906;2024-01-10T01:23:59;8.85;;;3.38;;
42030;SDS011;27709;52.036;5.906;2024-01-10T01:26:25;6.43;;;2.92;;
42030;SDS011;27709;52.036;5.906;2024-01-10T01:28:50;6.68;;;3.15;;
42030;SDS011;27709;52.036;5.906;2024-01-10T01:31:16;7.72;;;3.05;;
42030;SDS011;27709;52.036;5.906;2024-01-10T01:33:41;5.85;;;2.67;;
42030;SDS011;27709;52.036;5.906;2024-01-10T01:36:07;5.63;;;3.15;;
42030;SDS011;27709;52.036;5.906;2024-01-10T01:38:32;6.13;;;2.55;;
42030;SDS011;27709;52.036;5.906;2024-01-10T01:40:58;5.53;;;2.53;;
42030;SDS011;27709;52.036;5.906;2024-01-10T01:43:24;6.93;;;2.88;;
42030;SDS011;27709;52.036;5.906;2024-01-10T01:45:54;6.45;;;3.38;;
42030;SDS011;27709;52.036;5.906;2024-01-10T01:48:21;5.43;;;2.70;;
42030;SDS011;27709;52.036;5.906;2024-01-10T01:50:49;6.18;;;2.70;;
42030;SDS011;27709;52.036;5.906;2024-01-10T01:53:17;6.38;;;3.03;;
42030;SDS011;27709;52.036;5.906;2024-01-10T01:55:44;5.93;;;2.72;;
42030;SDS011;27709;52.036;5.906;2024-01-10T01:58:11;7.00;;;3.05;;
42030;SDS011;27709;52.036;5.906;2024-01-10T02:00:37;7.40;;;2.90;;
42030;SDS011;27709;52.036;5.906;2024-01-10T02:03:08;5.53;;;3.00;;
42030;SDS011;27709;52.036;5.906;2024-01-10T02:05:34;7.22;;;2.90;;
42030;SDS011;27709;52.036;5.906;2024-01-10T02:08:02;6.03;;;3.10;;
42030;SDS011;27709;52.036;5.906;2024-01-10T02:10:27;6.63;;;3.30;;
42030;SDS011;27709;52.036;5.906;2024-01-10T02:12:53;7.07;;;3.10;;
42030;SDS011;27709;52.036;5.906;2024-01-10T02:15:19;5.70;;;2.85;;
42030;SDS011;27709;52.036;5.906;2024-01-10T02:17:45;5.53;;;2.88;;
42030;SDS011;27709;52.036;5.906;2024-01-10T02:20:11;5.95;;;2.72;;
42030;SDS011;27709;52.036;5.906;2024-01-10T02:22:44;7.50;;;3.08;;
42030;SDS011;27709;52.036;5.906;2024-01-10T02:25:10;5.65;;;2.63;;
42030;SDS011;27709;52.036;5.906;2024-01-10T02:27:36;7.28;;;3.20;;
42030;SDS011;27709;52.036;5.906;2024-01-10T02:30:03;7.57;;;2.80;;
42030;SDS011;27709;52.036;5.906;2024-01-10T02:32:30;6.10;;;2.70;;
42030;SDS011;27709;52.036;5.906;2024-01-10T02:34:56;4.70;;;2.45;;
42030;SDS011;27709;52.036;5.906;2024-01-10T02:37:22;5.70;;;2.97;;
42030;SDS011;27709;52.036;5.906;2024-01-10T02:39:48;7.22;;;2.70;;
42030;SDS011;27709;52.036;5.906;2024-01-10T02:42:14;8.32;;;3.40;;
42030;SDS011;27709;52.036;5.906;2024-01-10T02:44:39;7.25;;;3.30;;
42030;SDS011;27709;52.036;5.906;2024-01-10T02:47:05;6.68;;;2.97;;
42030;SDS011;27709;52.036;5.906;2024-01-10T02:49:32;8.55;;;3.38;;
42030;SDS011;27709;52.036;5.906;2024-01-10T02:51:57;6.60;;;3.03;;
42030;SDS011;27709;52.036;5.906;2024-01-10T02:54:23;7.32;;;3.08;;
42030;SDS011;27709;52.036;5.906;2024-01-10T02:56:49;6.15;;;3.00;;
42030;SDS011;27709;52.036;5.906;2024-01-10T02:59:14;7.03;;;3.20;;
42030;SDS011;27709;52.036;5.906;2024-01-10T03:01:40;6.47;;;2.88;;
42030;SDS011;27709;52.036;5.906;2024-01-10T03:04:05;8.07;;;3.25;;
42030;SDS011;27709;52.036;5.906;2024-01-10T03:06:31;7.20;;;3.10;;
42030;SDS011;27709;52.036;5.906;2024-01-10T03:08:56;6.95;;;3.10;;
42030;SDS011;27709;52.036;5.906;2024-01-10T03:11:22;7.50;;;3.50;;
42030;SDS011;27709;52.036;5.906;2024-01-10T03:13:49;6.70;;;2.97;;
42030;SDS011;27709;52.036;5.906;2024-01-10T03:16:25;7.57;;;2.95;;
42030;SDS011;27709;52.036;5.906;2024-01-10T03:18:50;7.43;;;3.10;;
42030;SDS011;27709;52.036;5.906;2024-01-10T03:21:16;8.68;;;3.33;;
42030;SDS011;27709;52.036;5.906;2024-01-10T03:23:47;6.90;;;3.30;;
42030;SDS011;27709;52.036;5.906;2024-01-10T03:26:13;8.35;;;3.30;;
42030;SDS011;27709;52.036;5.906;2024-01-10T03:28:39;6.60;;;3.53;;
42030;SDS011;27709;52.036;5.906;2024-01-10T03:31:04;8.05;;;3.78;;
42030;SDS011;27709;52.036;5.906;2024-01-10T03:33:30;6.68;;;3.13;;
42030;SDS011;27709;52.036;5.906;2024-01-10T03:35:55;9.07;;;3.83;;
42030;SDS011;27709;52.036;5.906;2024-01-10T03:38:21;7.47;;;3.20;;
42030;SDS011;27709;52.036;5.906;2024-01-10T03:40:46;7.47;;;3.50;;
42030;SDS011;27709;52.036;5.906;2024-01-10T03:43:12;7.93;;;3.45;;
42030;SDS011;27709;52.036;5.906;2024-01-10T03:45:38;7.38;;;3.40;;
42030;SDS011;27709;52.036;5.906;2024-01-10T03:48:04;8.57;;;3.25;;
42030;SDS011;27709;52.036;5.906;2024-01-10T03:50:30;9.05;;;3.78;;
42030;SDS011;27709;52.036;5.906;2024-01-10T03:52:56;6.53;;;3.33;;
42030;SDS011;27709;52.036;5.906;2024-01-10T03:55:21;8.85;;;3.38;;
42030;SDS011;27709;52.036;5.906;2024-01-10T03:57:47;7.28;;;3.25;;
42030;SDS011;27709;52.036;5.906;2024-01-10T04:00:13;9.63;;;3.58;;
42030;SDS011;27709;52.036;5.906;2024-01-10T04:02:38;7.15;;;3.55;;
42030;SDS011;27709;52.036;5.906;2024-01-10T04:05:10;8.05;;;3.45;;
42030;SDS011;27709;52.036;5.906;2024-01-10T04:07:37;8.35;;;3.40;;
42030;SDS011;27709;52.036;5.906;2024-01-10T04:10:06;8.63;;;3.45;;
42030;SDS011;27709;52.036;5.906;2024-01-10T04:12:35;7.32;;;3.78;;
42030;SDS011;27709;52.036;5.906;2024-01-10T04:15:02;6.43;;;3.10;;
42030;SDS011;27709;52.036;5.906;2024-01-10T04:17:29;9.10;;;3.30;;
42030;SDS011;27709;52.036;5.906;2024-01-10T04:19:54;6.78;;;3.60;;
42030;SDS011;27709;52.036;5.906;2024-01-10T04:22:20;8.73;;;3.30;;
42030;SDS011;27709;52.036;5.906;2024-01-10T04:24:46;7.47;;;3.40;;
42030;SDS011;27709;52.036;5.906;2024-01-10T04:27:11;7.00;;;2.95;;
42030;SDS011;27709;52.036;5.906;2024-01-10T04:29:37;7.00;;;3.60;;
42030;SDS011;27709;52.036;5.906;2024-01-10T04:32:03;7.57;;;3.30;;
42030;SDS011;27709;52.036;5.906;2024-01-10T04:34:29;7.63;;;3.63;;
42030;SDS011;27709;52.036;5.906;2024-01-10T04:36:54;8.40;;;4.18;;
42030;SDS011;27709;52.036;5.906;2024-01-10T04:39:20;7.60;;;3.35;;
42030;SDS011;27709;52.036;5.906;2024-01-10T04:41:46;10.27;;;3.70;;
42030;SDS011;27709;52.036;5.906;2024-01-10T04:44:11;9.43;;;3.72;;
42030;SDS011;27709;52.036;5.906;2024-01-10T04:46:37;8.75;;;3.20;;
42030;SDS011;27709;52.036;5.906;2024-01-10T04:49:02;6.72;;;3.28;;
42030;SDS011;27709;52.036;5.906;2024-01-10T04:51:28;8.10;;;3.50;;
42030;SDS011;27709;52.036;5.906;2024-01-10T04:53:53;7.75;;;3.10;;
42030;SDS011;27709;52.036;5.906;2024-01-10T04:56:20;6.97;;;3.22;;
42030;SDS011;27709;52.036;5.906;2024-01-10T04:58:46;7.03;;;3.25;;
42030;SDS011;27709;52.036;5.906;2024-01-10T05:01:11;9.13;;;4.30;;
42030;SDS011;27709;52.036;5.906;2024-01-10T05:03:37;7.22;;;3.45;;
42030;SDS011;27709;52.036;5.906;2024-01-10T05:06:02;6.82;;;3.50;;
42030;SDS011;27709;52.036;5.906;2024-01-10T05:08:29;8.57;;;3.70;;
42030;SDS011;27709;52.036;5.906;2024-01-10T05:10:55;7.75;;;3.67;;
42030;SDS011;27709;52.036;5.906;2024-01-10T05:13:21;8.88;;;4.03;;
42030;SDS011;27709;52.036;5.906;2024-01-10T05:15:46;9.70;;;3.90;;
42030;SDS011;27709;52.036;5.906;2024-01-10T05:18:12;10.18;;;4.03;;
42030;SDS011;27709;52.036;5.906;2024-01-10T05:20:37;6.75;;;3.42;;
42030;SDS011;27709;52.036;5.906;2024-01-10T05:23:03;9.90;;;3.72;;
42030;SDS011;27709;52.036;5.906;2024-01-10T05:25:29;10.70;;;4.40;;
42030;SDS011;27709;52.036;5.906;2024-01-10T05:27:54;8.75;;;3.88;;
42030;SDS011;27709;52.036;5.906;2024-01-10T05:30:20;8.00;;;3.28;;
42030;SDS011;27709;52.036;5.906;2024-01-10T05:32:45;7.40;;;3.83;;
42030;SDS011;27709;52.036;5.906;2024-01-10T05:35:11;9.82;;;4.00;;
42030;SDS011;27709;52.036;5.906;2024-01-10T05:37:37;7.47;;;4.03;;
42030;SDS011;27709;52.036;5.906;2024-01-10T05:40:02;10.68;;;4.00;;
42030;SDS011;27709;52.036;5.906;2024-01-10T05:42:31;8.85;;;4.25;;
42030;SDS011;27709;52.036;5.906;2024-01-10T05:44:58;11.05;;;5.07;;
42030;SDS011;27709;52.036;5.906;2024-01-10T05:47:24;10.00;;;4.32;;
42030;SDS011;27709;52.036;5.906;2024-01-10T05:49:51;10.77;;;4.43;;
42030;SDS011;27709;52.036;5.906;2024-01-10T05:52:18;10.95;;;4.63;;
42030;SDS011;27709;52.036;5.906;2024-01-10T05:54:44;11.27;;;4.53;;
42030;SDS011;27709;52.036;5.906;2024-01-10T05:57:10;7.90;;;4.00;;
42030;SDS011;27709;52.036;5.906;2024-01-10T05:59:35;9.48;;;4.47;;
42030;SDS011;27709;52.036;5.906;2024-01-10T06:02:02;8.15;;;3.85;;
42030;SDS011;27709;52.036;5.906;2024-01-10T06:04:28;10.05;;;4.25;;
42030;SDS011;27709;52.036;5.906;2024-01-10T06:06:56;8.90;;;4.85;;
42030;SDS011;27709;52.036;5.906;2024-01-10T06:09:23;10.93;;;4.70;;
42030;SDS011;27709;52.036;5.906;2024-01-10T06:11:49;9.85;;;4.45;;
42030;SDS011;27709;52.036;5.906;2024-01-10T06:14:14;10.32;;;4.03;;
42030;SDS011;27709;52.036;5.906;2024-01-10T06:16:41;8.68;;;4.32;;
42030;SDS011;27709;52.036;5.906;2024-01-10T06:19:06;9.68;;;4.63;;
42030;SDS011;27709;52.036;5.906;2024-01-10T06:21:32;10.30;;;4.65;;
42030;SDS011;27709;52.036;5.906;2024-01-10T06:23:57;10.43;;;4.53;;
42030;SDS011;27709;52.036;5.906;2024-01-10T06:26:23;9.85;;;4.47;;
42030;SDS011;27709;52.036;5.906;2024-01-10T06:28:48;11.93;;;4.72;;
42030;SDS011;27709;52.036;5.906;2024-01-10T06:31:14;12.55;;;5.30;;
42030;SDS011;27709;52.036;5.906;2024-01-10T06:33:41;11.35;;;4.82;;
42030;SDS011;27709;52.036;5.906;2024-01-10T06:36:06;10.60;;;4.65;;
42030;SDS011;27709;52.036;5.906;2024-01-10T06:38:32;9.82;;;4.50;;
42030;SDS011;27709;52.036;5.906;2024-01-10T06:40:58;12.23;;;5.18;;
42030;SDS011;27709;52.036;5.906;2024-01-10T06:43:23;7.30;;;3.85;;
42030;SDS011;27709;52.036;5.906;2024-01-10T06:45:49;10.38;;;4.80;;
42030;SDS011;27709;52.036;5.906;2024-01-10T06:48:15;9.32;;;4.78;;
42030;SDS011;27709;52.036;5.906;2024-01-10T06:50:41;11.05;;;4.70;;
42030;SDS011;27709;52.036;5.906;2024-01-10T06:53:09;10.50;;;4.88;;
42030;SDS011;27709;52.036;5.906;2024-01-10T06:55:34;11.15;;;5.40;;
42030;SDS011;27709;52.036;5.906;2024-01-10T06:58:00;9.65;;;4.25;;
42030;SDS011;27709;52.036;5.906;2024-01-10T07:00:25;10.70;;;4.55;;
42030;SDS011;27709;52.036;5.906;2024-01-10T07:02:51;12.98;;;5.03;;
42030;SDS011;27709;52.036;5.906;2024-01-10T07:05:17;10.27;;;4.95;;
42030;SDS011;27709;52.036;5.906;2024-01-10T07:07:43;10.43;;;4.80;;
42030;SDS011;27709;52.036;5.906;2024-01-10T07:10:08;11.57;;;5.43;;
42030;SDS011;27709;52.036;5.906;2024-01-10T07:12:35;9.75;;;4.97;;
42030;SDS011;27709;52.036;5.906;2024-01-10T07:15:01;15.02;;;5.47;;
42030;SDS011;27709;52.036;5.906;2024-01-10T07:17:47;13.15;;;5.80;;
42030;SDS011;27709;52.036;5.906;2024-01-10T07:20:13;12.48;;;5.65;;
42030;SDS011;27709;52.036;5.906;2024-01-10T07:22:39;11.30;;;5.18;;
42030;SDS011;27709;52.036;5.906;2024-01-10T07:25:09;15.68;;;5.38;;
42030;SDS011;27709;52.036;5.906;2024-01-10T07:27:39;10.38;;;5.75;;
42030;SDS011;27709;52.036;5.906;2024-01-10T07:30:05;12.10;;;4.90;;
42030;SDS011;27709;52.036;5.906;2024-01-10T07:32:38;14.10;;;5.72;;
42030;SDS011;27709;52.036;5.906;2024-01-10T07:35:07;13.05;;;6.18;;
42030;SDS011;27709;52.036;5.906;2024-01-10T07:37:37;12.68;;;5.10;;
42030;SDS011;27709;52.036;5.906;2024-01-10T07:40:03;12.40;;;5.45;;
42030;SDS011;27709;52.036;5.906;2024-01-10T07:42:38;14.77;;;5.80;;
42030;SDS011;27709;52.036;5.906;2024-01-10T07:45:05;15.88;;;6.25;;
42030;SDS011;27709;52.036;5.906;2024-01-10T07:47:31;14.65;;;6.68;;
42030;SDS011;27709;52.036;5.906;2024-01-10T07:49:59;13.38;;;6.20;;
42030;SDS011;27709;52.036;5.906;2024-01-10T07:52:24;12.10;;;6.18;;
42030;SDS011;27709;52.036;5.906;2024-01-10T07:54:51;13.93;;;6.47;;
42030;SDS011;27709;52.036;5.906;2024-01-10T07:57:17;17.45;;;7.10;;
42030;SDS011;27709;52.036;5.906;2024-01-10T07:59:44;13.82;;;6.45;;
42030;SDS011;27709;52.036;5.906;2024-01-10T08:02:10;13.63;;;5.72;;
42030;SDS011;27709;52.036;5.906;2024-01-10T08:04:36;15.65;;;7.03;;
42030;SDS011;27709;52.036;5.906;2024-01-10T08:07:02;15.98;;;6.57;;
42030;SDS011;27709;52.036;5.906;2024-01-10T08:09:28;13.63;;;6.38;;
42030;SDS011;27709;52.036;5.906;2024-01-10T08:11:54;13.60;;;6.13;;
42030;SDS011;27709;52.036;5.906;2024-01-10T08:14:19;12.77;;;6.88;;
42030;SDS011;27709;52.036;5.906;2024-01-10T08:16:45;15.80;;;7.30;;
42030;SDS011;27709;52.036;5.906;2024-01-10T08:19:10;13.65;;;6.55;;
42030;SDS011;27709;52.036;5.906;2024-01-10T08:21:36;16.40;;;6.70;;
42030;SDS011;27709;52.036;5.906;2024-01-10T08:24:02;16.80;;;7.07;;
42030;SDS011;27709;52.036;5.906;2024-01-10T08:26:28;13.52;;;6.72;;
42030;SDS011;27709;52.036;5.906;2024-01-10T08:28:54;15.88;;;7.40;;
42030;SDS011;27709;52.036;5.906;2024-01-10T08:31:20;15.73;;;7.03;;
42030;SDS011;27709;52.036;5.906;2024-01-10T08:33:46;15.48;;;7.18;;
42030;SDS011;27709;52.036;5.906;2024-01-10T08:36:12;18.52;;;7.18;;
42030;SDS011;27709;52.036;5.906;2024-01-10T08:38:39;12.88;;;6.40;;
42030;SDS011;27709;52.036;5.906;2024-01-10T08:41:05;16.35;;;7.43;;
42030;SDS011;27709;52.036;5.906;2024-01-10T08:43:33;17.55;;;6.97;;
42030;SDS011;27709;52.036;5.906;2024-01-10T08:45:59;15.77;;;7.07;;
42030;SDS011;27709;52.036;5.906;2024-01-10T08:48:25;14.80;;;7.15;;
42030;SDS011;27709;52.036;5.906;2024-01-10T08:50:51;13.75;;;6.82;;
42030;SDS011;27709;52.036;5.906;2024-01-10T08:53:19;15.95;;;7.63;;
42030;SDS011;27709;52.036;5.906;2024-01-10T08:55:44;18.98;;;7.40;;
42030;SDS011;27709;52.036;5.906;2024-01-10T08:58:12;13.57;;;6.80;;
42030;SDS011;27709;52.036;5.906;2024-01-10T09:00:37;15.40;;;7.25;;
42030;SDS011;27709;52.036;5.906;2024-01-10T09:03:03;16.73;;;7.57;;
42030;SDS011;27709;52.036;5.906;2024-01-10T09:05:29;17.10;;;7.60;;
42030;SDS011;27709;52.036;5.906;2024-01-10T09:07:54;16.23;;;7.45;;
42030;SDS011;27709;52.036;5.906;2024-01-10T09:10:20;17.67;;;7.10;;
42030;SDS011;27709;52.036;5.906;2024-01-10T09:12:46;16.10;;;7.90;;
42030;SDS011;27709;52.036;5.906;2024-01-10T09:15:12;16.83;;;7.22;;
42030;SDS011;27709;52.036;5.906;2024-01-10T09:17:39;15.63;;;7.50;;
42030;SDS011;27709;52.036;5.906;2024-01-10T09:20:06;15.38;;;7.50;;
42030;SDS011;27709;52.036;5.906;2024-01-10T09:22:33;14.18;;;6.72;;
42030;SDS011;27709;52.036;5.906;2024-01-10T09:24:59;16.25;;;7.70;;
42030;SDS011;27709;52.036;5.906;2024-01-10T09:27:28;19.00;;;7.97;;
42030;SDS011;27709;52.036;5.906;2024-01-10T09:29:55;13.68;;;7.38;;
42030;SDS011;27709;52.036;5.906;2024-01-10T09:32:20;15.77;;;7.05;;
42030;SDS011;27709;52.036;5.906;2024-01-10T09:34:47;13.60;;;6.80;;
42030;SDS011;27709;52.036;5.906;2024-01-10T09:37:12;16.23;;;7.55;;
42030;SDS011;27709;52.036;5.906;2024-01-10T09:39:38;15.45;;;7.32;;
42030;SDS011;27709;52.036;5.906;2024-01-10T09:42:04;15.43;;;7.53;;
42030;SDS011;27709;52.036;5.906;2024-01-10T09:44:31;13.55;;;6.93;;
42030;SDS011;27709;52.036;5.906;2024-01-10T09:46:58;14.90;;;7.03;;
42030;SDS011;27709;52.036;5.906;2024-01-10T09:49:25;13.52;;;6.60;;
42030;SDS011;27709;52.036;5.906;2024-01-10T09:51:58;16.27;;;7.28;;
42030;SDS011;27709;52.036;5.906;2024-01-10T09:54:25;14.40;;;6.97;;
42030;SDS011;27709;52.036;5.906;2024-01-10T09:56:53;16.40;;;7.10;;
42030;SDS011;27709;52.036;5.906;2024-01-10T09:59:18;13.50;;;7.10;;
42030;SDS011;27709;52.036;5.906;2024-01-10T10:01:44;15.23;;;6.80;;
42030;SDS011;27709;52.036;5.906;2024-01-10T10:04:11;16.25;;;7.60;;
42030;SDS011;27709;52.036;5.906;2024-01-10T10:06:37;16.05;;;7.95;;
42030;SDS011;27709;52.036;5.906;2024-01-10T10:09:03;12.65;;;6.57;;
42030;SDS011;27709;52.036;5.906;2024-01-10T10:11:29;15.75;;;8.23;;
42030;SDS011;27709;52.036;5.906;2024-01-10T10:13:55;17.23;;;7.63;;
42030;SDS011;27709;52.036;5.906;2024-01-10T10:16:24;15.40;;;7.53;;
42030;SDS011;27709;52.036;5.906;2024-01-10T10:18:51;15.70;;;6.72;;
42030;SDS011;27709;52.036;5.906;2024-01-10T10:21:24;16.02;;;6.82;;
42030;SDS011;27709;52.036;5.906;2024-01-10T10:23:58;14.50;;;6.82;;
42030;SDS011;27709;52.036;5.906;2024-01-10T10:26:28;14.05;;;7.07;;
42030;SDS011;27709;52.036;5.906;2024-01-10T10:28:57;15.15;;;6.75;;
42030;SDS011;27709;52.036;5.906;2024-01-10T10:31:23;14.38;;;7.63;;
42030;SDS011;27709;52.036;5.906;2024-01-10T10:33:50;16.02;;;8.13;;
42030;SDS011;27709;52.036;5.906;2024-01-10T10:36:17;16.25;;;7.07;;
42030;SDS011;27709;52.036;5.906;2024-01-10T10:38:43;15.10;;;7.18;;
42030;SDS011;27709;52.036;5.906;2024-01-10T10:41:08;16.33;;;8.05;;
42030;SDS011;27709;52.036;5.906;2024-01-10T10:43:35;15.68;;;7.30;;
42030;SDS011;27709;52.036;5.906;2024-01-10T10:46:02;20.02;;;7.75;;
42030;SDS011;27709;52.036;5.906;2024-01-10T10:48:32;14.35;;;6.20;;
42030;SDS011;27709;52.036;5.906;2024-01-10T10:53:34;15.38;;;7.85;;
42030;SDS011;27709;52.036;5.906;2024-01-10T10:56:02;15.95;;;7.68;;
42030;SDS011;27709;52.036;5.906;2024-01-10T10:58:37;14.55;;;7.40;;
42030;SDS011;27709;52.036;5.906;2024-01-10T11:01:07;15.90;;;6.90;;
42030;SDS011;27709;52.036;5.906;2024-01-10T11:03:34;13.30;;;6.95;;
42030;SDS011;27709;52.036;5.906;2024-01-10T11:06:05;13.60;;;6.78;;
42030;SDS011;27709;52.036;5.906;2024-01-10T11:08:38;15.18;;;7.00;;
42030;SDS011;27709;52.036;5.906;2024-01-10T11:14:28;15.23;;;6.57;;
42030;SDS011;27709;52.036;5.906;2024-01-10T11:20:16;15.05;;;7.30;;
42030;SDS011;27709;52.036;5.906;2024-01-10T11:23:15;16.63;;;7.13;;
42030;SDS011;27709;52.036;5.906;2024-01-10T11:26:02;15.13;;;7.57;;
42030;SDS011;27709;52.036;5.906;2024-01-10T11:28:31;13.70;;;6.75;;
42030;SDS011;27709;52.036;5.906;2024-01-10T11:30:57;13.60;;;7.10;;
42030;SDS011;27709;52.036;5.906;2024-01-10T11:33:24;13.38;;;6.90;;
42030;SDS011;27709;52.036;5.906;2024-01-10T11:38:47;15.48;;;7.55;;
42030;SDS011;27709;52.036;5.906;2024-01-10T11:41:19;12.20;;;6.57;;
42030;SDS011;27709;52.036;5.906;2024-01-10T11:43:45;13.75;;;7.38;;
42030;SDS011;27709;52.036;5.906;2024-01-10T11:46:12;13.55;;;7.05;;
42030;SDS011;27709;52.036;5.906;2024-01-10T11:48:37;13.27;;;6.78;;
42030;SDS011;27709;52.036;5.906;2024-01-10T11:51:04;13.88;;;7.05;;
42030;SDS011;27709;52.036;5.906;2024-01-10T11:53:42;16.15;;;8.10;;
42030;SDS011;27709;52.036;5.906;2024-01-10T11:56:12;17.05;;;7.45;;
42030;SDS011;27709;52.036;5.906;2024-01-10T11:59:01;18.23;;;8.23;;
42030;SDS011;27709;52.036;5.906;2024-01-10T12:01:29;17.80;;;7.75;;
42030;SDS011;27709;52.036;5.906;2024-01-10T12:03:56;14.88;;;7.15;;
42030;SDS011;27709;52.036;5.906;2024-01-10T12:06:23;15.25;;;7.25;;
42030;SDS011;27709;52.036;5.906;2024-01-10T12:08:50;14.95;;;7.20;;
42030;SDS011;27709;52.036;5.906;2024-01-10T12:11:16;14.95;;;8.00;;
42030;SDS011;27709;52.036;5.906;2024-01-10T12:13:42;16.20;;;7.38;;
42030;SDS011;27709;52.036;5.906;2024-01-10T12:16:08;16.08;;;7.40;;
42030;SDS011;27709;52.036;5.906;2024-01-10T12:18:34;15.50;;;7.32;;
42030;SDS011;27709;52.036;5.906;2024-01-10T12:21:00;15.88;;;7.50;;
42030;SDS011;27709;52.036;5.906;2024-01-10T12:23:26;13.93;;;7.07;;
42030;SDS011;27709;52.036;5.906;2024-01-10T12:25:56;18.00;;;8.20;;
42030;SDS011;27709;52.036;5.906;2024-01-10T12:28:26;15.18;;;7.55;;
42030;SDS011;27709;52.036;5.906;2024-01-10T12:30:52;14.23;;;7.70;;
42030;SDS011;27709;52.036;5.906;2024-01-10T12:33:21;18.45;;;7.80;;
42030;SDS011;27709;52.036;5.906;2024-01-10T12:36:07;14.48;;;7.28;;
42030;SDS011;27709;52.036;5.906;2024-01-10T12:38:36;16.92;;;8.73;;
42030;SDS011;27709;52.036;5.906;2024-01-10T12:41:03;15.90;;;8.15;;
42030;SDS011;27709;52.036;5.906;2024-01-10T12:43:29;16.45;;;7.57;;
42030;SDS011;27709;52.036;5.906;2024-01-10T12:46:05;14.88;;;7.20;;
42030;SDS011;27709;52.036;5.906;2024-01-10T12:48:32;12.55;;;7.05;;
42030;SDS011;27709;52.036;5.906;2024-01-10T12:51:06;14.80;;;7.68;;
42030;SDS011;27709;52.036;5.906;2024-01-10T12:53:39;16.98;;;7.72;;
42030;SDS011;27709;52.036;5.906;2024-01-10T12:56:07;13.52;;;6.65;;
42030;SDS011;27709;52.036;5.906;2024-01-10T12:58:34;16.65;;;7.55;;
42030;SDS011;27709;52.036;5.906;2024-01-10T13:01:01;14.65;;;7.45;;
42030;SDS011;27709;52.036;5.906;2024-01-10T13:03:30;15.13;;;6.70;;
42030;SDS011;27709;52.036;5.906;2024-01-10T13:05:56;13.30;;;7.30;;
42030;SDS011;27709;52.036;5.906;2024-01-10T13:08:22;15.35;;;7.90;;
42030;SDS011;27709;52.036;5.906;2024-01-10T13:10:47;14.70;;;7.20;;
42030;SDS011;27709;52.036;5.906;2024-01-10T13:13:14;17.25;;;7.18;;
42030;SDS011;27709;52.036;5.906;2024-01-10T13:15:40;13.07;;;7.05;;
42030;SDS011;27709;52.036;5.906;2024-01-10T13:18:07;15.35;;;7.70;;
42030;SDS011;27709;52.036;5.906;2024-01-10T13:20:35;14.82;;;7.50;;
42030;SDS011;27709;52.036;5.906;2024-01-10T13:23:00;13.82;;;7.25;;
42030;SDS011;27709;52.036;5.906;2024-01-10T13:25:26;13.75;;;7.30;;
42030;SDS011;27709;52.036;5.906;2024-01-10T13:27:52;15.20;;;7.78;;
42030;SDS011;27709;52.036;5.906;2024-01-10T13:30:18;17.35;;;7.10;;
42030;SDS011;27709;52.036;5.906;2024-01-10T13:32:44;14.55;;;7.30;;
42030;SDS011;27709;52.036;5.906;2024-01-10T13:35:12;13.77;;;6.40;;
42030;SDS011;27709;52.036;5.906;2024-01-10T13:37:45;14.27;;;7.18;;
42030;SDS011;27709;52.036;5.906;2024-01-10T13:40:11;13.60;;;7.43;;
42030;SDS011;27709;52.036;5.906;2024-01-10T13:42:40;13.63;;;6.88;;
42030;SDS011;27709;52.036;5.906;2024-01-10T13:45:06;16.88;;;8.00;;
42030;SDS011;27709;52.036;5.906;2024-01-10T13:47:33;15.57;;;7.40;;
42030;SDS011;27709;52.036;5.906;2024-01-10T13:49:59;12.77;;;6.63;;
42030;SDS011;27709;52.036;5.906;2024-01-10T13:52:25;14.27;;;7.65;;
42030;SDS011;27709;52.036;5.906;2024-01-10T13:54:51;13.20;;;6.68;;
42030;SDS011;27709;52.036;5.906;2024-01-10T13:57:17;15.32;;;7.50;;
42030;SDS011;27709;52.036;5.906;2024-01-10T13:59:43;14.38;;;7.25;;
42030;SDS011;27709;52.036;5.906;2024-01-10T14:02:10;14.20;;;7.07;;
42030;SDS011;27709;52.036;5.906;2024-01-10T14:04:36;14.23;;;7.47;;
42030;SDS011;27709;52.036;5.906;2024-01-10T14:07:01;13.93;;;7.20;;
42030;SDS011;27709;52.036;5.906;2024-01-10T14:09:29;12.43;;;6.57;;
42030;SDS011;27709;52.036;5.906;2024-01-10T14:11:55;16.20;;;7.57;;
42030;SDS011;27709;52.036;5.906;2024-01-10T14:14:21;13.57;;;7.07;;
42030;SDS011;27709;52.036;5.906;2024-01-10T14:16:47;12.80;;;7.03;;
42030;SDS011;27709;52.036;5.906;2024-01-10T14:19:12;15.75;;;7.28;;
42030;SDS011;27709;52.036;5.906;2024-01-10T14:21:40;17.05;;;7.07;;
42030;SDS011;27709;52.036;5.906;2024-01-10T14:24:05;13.15;;;7.07;;
42030;SDS011;27709;52.036;5.906;2024-01-10T14:26:31;13.93;;;7.35;;
42030;SDS011;27709;52.036;5.906;2024-01-10T14:28:57;12.27;;;6.50;;
42030;SDS011;27709;52.036;5.906;2024-01-10T14:31:24;12.52;;;5.90;;
42030;SDS011;27709;52.036;5.906;2024-01-10T14:33:49;12.95;;;6.40;;
42030;SDS011;27709;52.036;5.906;2024-01-10T14:36:15;15.77;;;7.10;;
42030;SDS011;27709;52.036;5.906;2024-01-10T14:38:41;13.45;;;7.13;;
42030;SDS011;27709;52.036;5.906;2024-01-10T14:41:07;16.95;;;6.93;;
42030;SDS011;27709;52.036;5.906;2024-01-10T14:43:33;13.80;;;5.93;;
42030;SDS011;27709;52.036;5.906;2024-01-10T14:46:01;11.35;;;6.03;;
42030;SDS011;27709;52.036;5.906;2024-01-10T14:48:27;16.83;;;7.03;;
42030;SDS011;27709;52.036;5.906;2024-01-10T14:50:53;14.88;;;6.32;;